sensor_id;sensor_type;location;lat;lon;timestamp;P1;durP1;ratioP1;P2;durP2;ratioP2
48679;SDS011;34475;51.658;5.634;2023-03-01T00:00:00;3.7;;;3.6;;
48679;SDS011;34475;51.658;5.634;2023-03-01T00:01:04;3.7;;;3.6;;
48679;SDS011;34475;51.658;5.634;2023-03-01T00:02:01;3.7;;;3.6;;
48679;SDS011;34475;51.658;5.634;2023-03-01T00:03:00;3.7;;;3.6;;
48679;SDS011;34475;51.658;5.634;2023-03-01T00:04:00;3.7;;;3.6;;
48679;SDS011;34475;51.658;5.634;2023-03-01T00:05:00;3.7;;;3.6;;
48679;SDS011;34475;51.658;5.634;2023-03-01T00:06:00;3.7;;;3.6;;
48679;SDS011;34475;51.658;5.634;2023-03-01T00:07:00;3.7;;;3.6;;
48679;SDS011;34475;51.658;5.634;2023-03-01T00:08:00;3.7;;;3.6;;
48679;SDS011;34475;51.658;5.634;2023-03-01T00:09:00;3.7;;;3.6;;
48679;SDS011;34475;51.658;5.634;2023-03-01T00:10:00;3.7;;;3.6;;
48679;SDS011;34475;51.658;5.634;2023-03-01T00:11:06;3.7;;;3.6;;
48679;SDS011;34475;51.658;5.634;2023-03-01T00:12:00;3.6;;;3.5;;
48679;SDS011;34475;51.658;5.634;2023-03-01T00:13:00;3.6;;;3.5;;
48679;SDS011;34475;51.658;5.634;2023-03-01T00:14:02;3.6;;;3.5;;
48679;SDS011;34475;51.658;5.634;2023-03-01T00:15:00;3.6;;;3.5;;
48679;SDS011;34475;51.658;5.634;2023-03-01T00:16:03;3.6;;;3.5;;
48679;SDS011;34475;51.658;5.634;2023-03-01T00:17:01;3.6;;;3.5;;
48679;SDS011;34475;51.658;5.634;2023-03-01T00:18:00;3.6;;;3.5;;
48679;SDS011;34475;51.658;5.634;2023-03-01T00:19:01;3.6;;;3.5;;
48679;SDS011;34475;51.658;5.634;2023-03-01T00:20:00;3.6;;;3.5;;
48679;SDS011;34475;51.658;5.634;2023-03-01T00:21:01;3.6;;;3.5;;
48679;SDS011;34475;51.658;5.634;2023-03-01T00:22:00;3.6;;;3.5;;
48679;SDS011;34475;51.658;5.634;2023-03-01T00:23:00;3.6;;;3.5;;
48679;SDS011;34475;51.658;5.634;2023-03-01T00:24:01;3.6;;;3.5;;
48679;SDS011;34475;51.658;5.634;2023-03-01T00:25:00;3.6;;;3.5;;
48679;SDS011;34475;51.658;5.634;2023-03-01T00:26:01;3.6;;;3.5;;
48679;SDS011;34475;51.658;5.634;2023-03-01T00:27:00;3.6;;;3.5;;
48679;SDS011;34475;51.658;5.634;2023-03-01T00:28:00;3.6;;;3.5;;
48679;SDS011;34475;51.658;5.634;2023-03-01T00:29:01;3.6;;;3.5;;
48679;SDS011;34475;51.658;5.634;2023-03-01T00:30:00;3.6;;;3.5;;
48679;SDS011;34475;51.658;5.634;2023-03-01T00:31:03;3.6;;;3.5;;
48679;SDS011;34475;51.658;5.634;2023-03-01T00:32:00;3.8;;;3.7;;
48679;SDS011;34475;51.658;5.634;2023-03-01T00:33:01;3.8;;;3.7;;
48679;SDS011;34475;51.658;5.634;2023-03-01T00:34:03;3.8;;;3.7;;
48679;SDS011;34475;51.658;5.634;2023-03-01T00:35:00;3.8;;;3.7;;
48679;SDS011;34475;51.658;5.634;2023-03-01T00:36:00;3.8;;;3.7;;
48679;SDS011;34475;51.658;5.634;2023-03-01T00:37:05;3.8;;;3.7;;
48679;SDS011;34475;51.658;5.634;2023-03-01T00:38:01;3.8;;;3.7;;
48679;SDS011;34475;51.658;5.634;2023-03-01T00:39:02;3.8;;;3.7;;
48679;SDS011;34475;51.658;5.634;2023-03-01T00:40:00;3.8;;;3.7;;
48679;SDS011;34475;51.658;5.634;2023-03-01T00:41:10;3.8;;;3.7;;
48679;SDS011;34475;51.658;5.634;2023-03-01T00:42:00;3.8;;;3.7;;
48679;SDS011;34475;51.658;5.634;2023-03-01T00:43:01;3.8;;;3.7;;
48679;SDS011;34475;51.658;5.634;2023-03-01T00:44:00;3.8;;;3.7;;
48679;SDS011;34475;51.658;5.634;2023-03-01T00:45:00;3.8;;;3.7;;
48679;SDS011;34475;51.658;5.634;2023-03-01T00:46:01;3.8;;;3.7;;
48679;SDS011;34475;51.658;5.634;2023-03-01T00:47:00;3.8;;;3.7;;
48679;SDS011;34475;51.658;5.634;2023-03-01T00:48:00;3.8;;;3.7;;
48679;SDS011;34475;51.658;5.634;2023-03-01T00:49:02;3.8;;;3.7;;
48679;SDS011;34475;51.658;5.634;2023-03-01T00:50:00;3.8;;;3.7;;
48679;SDS011;34475;51.658;5.634;2023-03-01T00:51:06;3.8;;;3.7;;
48679;SDS011;34475;51.658;5.634;2023-03-01T00:52:00;4.0;;;3.9;;
48679;SDS011;34475;51.658;5.634;2023-03-01T00:53:00;4.0;;;3.9;;
48679;SDS011;34475;51.658;5.634;2023-03-01T00:54:02;4.0;;;3.9;;
48679;SDS011;34475;51.658;5.634;2023-03-01T00:55:00;4.0;;;3.9;;
48679;SDS011;34475;51.658;5.634;2023-03-01T00:56:01;4.0;;;3.9;;
48679;SDS011;34475;51.658;5.634;2023-03-01T00:57:00;4.0;;;3.9;;
48679;SDS011;34475;51.658;5.634;2023-03-01T00:58:00;4.0;;;3.9;;
48679;SDS011;34475;51.658;5.634;2023-03-01T00:59:01;4.0;;;3.9;;
48679;SDS011;34475;51.658;5.634;2023-03-01T01:00:00;4.0;;;3.9;;
48679;SDS011;34475;51.658;5.634;2023-03-01T01:01:00;4.0;;;3.9;;
48679;SDS011;34475;51.658;5.634;2023-03-01T01:02:00;4.0;;;3.9;;
48679;SDS011;34475;51.658;5.634;2023-03-01T01:03:00;4.0;;;3.9;;
48679;SDS011;34475;51.658;5.634;2023-03-01T01:04:03;4.0;;;3.9;;
48679;SDS011;34475;51.658;5.634;2023-03-01T01:05:00;4.0;;;3.9;;
48679;SDS011;34475;51.658;5.634;2023-03-01T01:06:12;4.0;;;3.9;;
48679;SDS011;34475;51.658;5.634;2023-03-01T01:07:00;4.0;;;3.9;;
48679;SDS011;34475;51.658;5.634;2023-03-01T01:08:00;4.0;;;3.9;;
48679;SDS011;34475;51.658;5.634;2023-03-01T01:09:02;4.0;;;3.9;;
48679;SDS011;34475;51.658;5.634;2023-03-01T01:10:00;4.0;;;3.9;;
48679;SDS011;34475;51.658;5.634;2023-03-01T01:11:00;4.0;;;3.9;;
48679;SDS011;34475;51.658;5.634;2023-03-01T01:12:01;4.1;;;4.0;;
48679;SDS011;34475;51.658;5.634;2023-03-01T01:13:00;4.1;;;4.0;;
48679;SDS011;34475;51.658;5.634;2023-03-01T01:14:00;4.1;;;4.0;;
48679;SDS011;34475;51.658;5.634;2023-03-01T01:15:00;4.1;;;4.0;;
48679;SDS011;34475;51.658;5.634;2023-03-01T01:16:01;4.1;;;4.0;;
48679;SDS011;34475;51.658;5.634;2023-03-01T01:17:00;4.1;;;4.0;;
48679;SDS011;34475;51.658;5.634;2023-03-01T01:18:01;4.1;;;4.0;;
48679;SDS011;34475;51.658;5.634;2023-03-01T01:19:01;4.1;;;4.0;;
48679;SDS011;34475;51.658;5.634;2023-03-01T01:20:00;4.1;;;4.0;;
48679;SDS011;34475;51.658;5.634;2023-03-01T01:21:11;4.1;;;4.0;;
48679;SDS011;34475;51.658;5.634;2023-03-01T01:22:00;4.1;;;4.0;;
48679;SDS011;34475;51.658;5.634;2023-03-01T01:23:00;4.1;;;4.0;;
48679;SDS011;34475;51.658;5.634;2023-03-01T01:24:03;4.1;;;4.0;;
48679;SDS011;34475;51.658;5.634;2023-03-01T01:25:00;4.1;;;4.0;;
48679;SDS011;34475;51.658;5.634;2023-03-01T01:26:06;4.1;;;4.0;;
48679;SDS011;34475;51.658;5.634;2023-03-01T01:27:00;4.1;;;4.0;;
48679;SDS011;34475;51.658;5.634;2023-03-01T01:28:00;4.1;;;4.0;;
48679;SDS011;34475;51.658;5.634;2023-03-01T01:29:02;4.1;;;4.0;;
48679;SDS011;34475;51.658;5.634;2023-03-01T01:30:00;4.1;;;4.0;;
48679;SDS011;34475;51.658;5.634;2023-03-01T01:31:00;4.1;;;4.0;;
48679;SDS011;34475;51.658;5.634;2023-03-01T01:32:00;4.3;;;4.2;;
48679;SDS011;34475;51.658;5.634;2023-03-01T01:33:00;4.3;;;4.2;;
48679;SDS011;34475;51.658;5.634;2023-03-01T01:34:03;4.3;;;4.2;;
48679;SDS011;34475;51.658;5.634;2023-03-01T01:35:00;4.3;;;4.2;;
48679;SDS011;34475;51.658;5.634;2023-03-01T01:36:00;4.3;;;4.2;;
48679;SDS011;34475;51.658;5.634;2023-03-01T01:37:02;4.3;;;4.2;;
48679;SDS011;34475;51.658;5.634;2023-03-01T01:38:00;4.3;;;4.2;;
48679;SDS011;34475;51.658;5.634;2023-03-01T01:39:00;4.3;;;4.2;;
48679;SDS011;34475;51.658;5.634;2023-03-01T01:40:04;4.3;;;4.2;;
48679;SDS011;34475;51.658;5.634;2023-03-01T01:41:00;4.3;;;4.2;;
48679;SDS011;34475;51.658;5.634;2023-03-01T01:42:01;4.3;;;4.2;;
48679;SDS011;34475;51.658;5.634;2023-03-01T01:43:00;4.3;;;4.2;;
48679;SDS011;34475;51.658;5.634;2023-03-01T01:46:16;4.3;;;4.2;;
48679;SDS011;34475;51.658;5.634;2023-03-01T01:47:05;4.3;;;4.2;;
48679;SDS011;34475;51.658;5.634;2023-03-01T01:48:04;4.3;;;4.2;;
48679;SDS011;34475;51.658;5.634;2023-03-01T01:49:04;4.3;;;4.2;;
48679;SDS011;34475;51.658;5.634;2023-03-01T01:50:01;4.3;;;4.2;;
48679;SDS011;34475;51.658;5.634;2023-03-01T01:51:00;4.3;;;4.2;;
48679;SDS011;34475;51.658;5.634;2023-03-01T01:53:00;4.0;;;3.9;;
48679;SDS011;34475;51.658;5.634;2023-03-01T01:54:01;4.0;;;3.9;;
48679;SDS011;34475;51.658;5.634;2023-03-01T01:55:06;4.0;;;3.9;;
48679;SDS011;34475;51.658;5.634;2023-03-01T01:56:01;4.0;;;3.9;;
48679;SDS011;34475;51.658;5.634;2023-03-01T01:57:03;4.0;;;3.9;;
48679;SDS011;34475;51.658;5.634;2023-03-01T01:58:03;4.0;;;3.9;;
48679;SDS011;34475;51.658;5.634;2023-03-01T01:59:01;4.0;;;3.9;;
48679;SDS011;34475;51.658;5.634;2023-03-01T02:00:05;4.0;;;3.9;;
48679;SDS011;34475;51.658;5.634;2023-03-01T02:01:01;4.0;;;3.9;;
48679;SDS011;34475;51.658;5.634;2023-03-01T02:02:02;4.0;;;3.9;;
48679;SDS011;34475;51.658;5.634;2023-03-01T02:03:05;4.0;;;3.9;;
48679;SDS011;34475;51.658;5.634;2023-03-01T02:04:00;4.0;;;3.9;;
48679;SDS011;34475;51.658;5.634;2023-03-01T02:05:13;4.0;;;3.9;;
48679;SDS011;34475;51.658;5.634;2023-03-01T02:06:04;4.0;;;3.9;;
48679;SDS011;34475;51.658;5.634;2023-03-01T02:07:08;4.0;;;3.9;;
48679;SDS011;34475;51.658;5.634;2023-03-01T02:08:00;4.0;;;3.9;;
48679;SDS011;34475;51.658;5.634;2023-03-01T02:09:06;4.0;;;3.9;;
48679;SDS011;34475;51.658;5.634;2023-03-01T02:10:00;4.0;;;3.9;;
48679;SDS011;34475;51.658;5.634;2023-03-01T02:11:01;3.9;;;3.8;;
48679;SDS011;34475;51.658;5.634;2023-03-01T02:12:01;3.9;;;3.8;;
48679;SDS011;34475;51.658;5.634;2023-03-01T02:13:01;3.9;;;3.8;;
48679;SDS011;34475;51.658;5.634;2023-03-01T02:14:00;3.9;;;3.8;;
48679;SDS011;34475;51.658;5.634;2023-03-01T02:15:00;3.9;;;3.8;;
48679;SDS011;34475;51.658;5.634;2023-03-01T02:16:07;3.9;;;3.8;;
48679;SDS011;34475;51.658;5.634;2023-03-01T02:17:00;3.9;;;3.8;;
48679;SDS011;34475;51.658;5.634;2023-03-01T02:18:01;3.9;;;3.8;;
48679;SDS011;34475;51.658;5.634;2023-03-01T02:19:01;3.9;;;3.8;;
48679;SDS011;34475;51.658;5.634;2023-03-01T02:22:24;3.9;;;3.8;;
48679;SDS011;34475;51.658;5.634;2023-03-01T02:23:01;3.9;;;3.8;;
48679;SDS011;34475;51.658;5.634;2023-03-01T02:24:06;3.9;;;3.8;;
48679;SDS011;34475;51.658;5.634;2023-03-01T02:26:07;3.9;;;3.8;;
48679;SDS011;34475;51.658;5.634;2023-03-01T02:27:01;3.9;;;3.8;;
48679;SDS011;34475;51.658;5.634;2023-03-01T02:29:00;3.9;;;3.8;;
48679;SDS011;34475;51.658;5.634;2023-03-01T02:30:00;3.9;;;3.8;;
48679;SDS011;34475;51.658;5.634;2023-03-01T02:31:13;3.9;;;3.8;;
48679;SDS011;34475;51.658;5.634;2023-03-01T02:32:02;3.9;;;3.8;;
48679;SDS011;34475;51.658;5.634;2023-03-01T02:33:04;3.9;;;3.8;;
48679;SDS011;34475;51.658;5.634;2023-03-01T02:34:04;3.9;;;3.8;;
48679;SDS011;34475;51.658;5.634;2023-03-01T02:35:01;3.9;;;3.8;;
48679;SDS011;34475;51.658;5.634;2023-03-01T02:36:02;3.9;;;3.8;;
48679;SDS011;34475;51.658;5.634;2023-03-01T02:37:06;3.9;;;3.8;;
48679;SDS011;34475;51.658;5.634;2023-03-01T02:38:01;3.9;;;3.8;;
48679;SDS011;34475;51.658;5.634;2023-03-01T02:39:03;3.9;;;3.8;;
48679;SDS011;34475;51.658;5.634;2023-03-01T02:40:04;3.9;;;3.8;;
48679;SDS011;34475;51.658;5.634;2023-03-01T02:41:02;3.9;;;3.8;;
48679;SDS011;34475;51.658;5.634;2023-03-01T02:42:02;3.9;;;3.8;;
48679;SDS011;34475;51.658;5.634;2023-03-01T02:43:00;3.9;;;3.8;;
48679;SDS011;34475;51.658;5.634;2023-03-01T02:44:00;3.9;;;3.8;;
48679;SDS011;34475;51.658;5.634;2023-03-01T02:45:00;3.9;;;3.8;;
48679;SDS011;34475;51.658;5.634;2023-03-01T02:46:07;3.9;;;3.8;;
48679;SDS011;34475;51.658;5.634;2023-03-01T02:47:02;3.9;;;3.8;;
48679;SDS011;34475;51.658;5.634;2023-03-01T02:48:00;3.9;;;3.8;;
48679;SDS011;34475;51.658;5.634;2023-03-01T02:49:00;3.9;;;3.8;;
48679;SDS011;34475;51.658;5.634;2023-03-01T02:50:00;3.9;;;3.8;;
48679;SDS011;34475;51.658;5.634;2023-03-01T02:51:07;4.1;;;4.0;;
48679;SDS011;34475;51.658;5.634;2023-03-01T02:55:18;4.1;;;4.0;;
48679;SDS011;34475;51.658;5.634;2023-03-01T02:56:01;4.1;;;4.0;;
48679;SDS011;34475;51.658;5.634;2023-03-01T02:57:00;4.1;;;4.0;;
48679;SDS011;34475;51.658;5.634;2023-03-01T02:58:02;4.1;;;4.0;;
48679;SDS011;34475;51.658;5.634;2023-03-01T02:59:00;4.1;;;4.0;;
48679;SDS011;34475;51.658;5.634;2023-03-01T03:00:11;4.1;;;4.0;;
48679;SDS011;34475;51.658;5.634;2023-03-01T03:01:00;4.1;;;4.0;;
48679;SDS011;34475;51.658;5.634;2023-03-01T03:02:01;4.1;;;4.0;;
48679;SDS011;34475;51.658;5.634;2023-03-01T03:03:01;4.1;;;4.0;;
48679;SDS011;34475;51.658;5.634;2023-03-01T03:04:00;4.1;;;4.0;;
48679;SDS011;34475;51.658;5.634;2023-03-01T03:05:02;4.1;;;4.0;;
48679;SDS011;34475;51.658;5.634;2023-03-01T03:06:00;4.1;;;4.0;;
48679;SDS011;34475;51.658;5.634;2023-03-01T03:07:00;4.1;;;4.0;;
48679;SDS011;34475;51.658;5.634;2023-03-01T03:08:02;4.1;;;4.0;;
48679;SDS011;34475;51.658;5.634;2023-03-01T03:09:00;4.1;;;4.0;;
48679;SDS011;34475;51.658;5.634;2023-03-01T03:10:03;4.1;;;4.0;;
48679;SDS011;34475;51.658;5.634;2023-03-01T03:11:00;4.4;;;4.3;;
48679;SDS011;34475;51.658;5.634;2023-03-01T03:12:00;4.4;;;4.3;;
48679;SDS011;34475;51.658;5.634;2023-03-01T03:13:06;4.4;;;4.3;;
48679;SDS011;34475;51.658;5.634;2023-03-01T03:14:01;4.4;;;4.3;;
48679;SDS011;34475;51.658;5.634;2023-03-01T03:15:00;4.4;;;4.3;;
48679;SDS011;34475;51.658;5.634;2023-03-01T03:16:02;4.4;;;4.3;;
48679;SDS011;34475;51.658;5.634;2023-03-01T03:17:00;4.4;;;4.3;;
48679;SDS011;34475;51.658;5.634;2023-03-01T03:18:00;4.4;;;4.3;;
48679;SDS011;34475;51.658;5.634;2023-03-01T03:19:04;4.4;;;4.3;;
48679;SDS011;34475;51.658;5.634;2023-03-01T03:20:00;4.4;;;4.3;;
48679;SDS011;34475;51.658;5.634;2023-03-01T03:21:00;4.4;;;4.3;;
48679;SDS011;34475;51.658;5.634;2023-03-01T03:22:01;4.4;;;4.3;;
48679;SDS011;34475;51.658;5.634;2023-03-01T03:23:00;4.4;;;4.3;;
48679;SDS011;34475;51.658;5.634;2023-03-01T03:24:00;4.4;;;4.3;;
48679;SDS011;34475;51.658;5.634;2023-03-01T03:25:00;4.4;;;4.3;;
48679;SDS011;34475;51.658;5.634;2023-03-01T03:26:00;4.4;;;4.3;;
48679;SDS011;34475;51.658;5.634;2023-03-01T03:27:00;4.4;;;4.3;;
48679;SDS011;34475;51.658;5.634;2023-03-01T03:28:00;4.4;;;4.3;;
48679;SDS011;34475;51.658;5.634;2023-03-01T03:29:01;4.4;;;4.3;;
48679;SDS011;34475;51.658;5.634;2023-03-01T03:30:00;4.4;;;4.3;;
48679;SDS011;34475;51.658;5.634;2023-03-01T03:31:03;3.9;;;3.8;;
48679;SDS011;34475;51.658;5.634;2023-03-01T03:32:00;3.9;;;3.8;;
48679;SDS011;34475;51.658;5.634;2023-03-01T03:33:00;3.9;;;3.8;;
48679;SDS011;34475;51.658;5.634;2023-03-01T03:34:00;3.9;;;3.8;;
48679;SDS011;34475;51.658;5.634;2023-03-01T03:35:00;3.9;;;3.8;;
48679;SDS011;34475;51.658;5.634;2023-03-01T03:36:01;3.9;;;3.8;;
48679;SDS011;34475;51.658;5.634;2023-03-01T03:37:00;3.9;;;3.8;;
48679;SDS011;34475;51.658;5.634;2023-03-01T03:38:03;3.9;;;3.8;;
48679;SDS011;34475;51.658;5.634;2023-03-01T03:39:00;3.9;;;3.8;;
48679;SDS011;34475;51.658;5.634;2023-03-01T03:40:00;3.9;;;3.8;;
48679;SDS011;34475;51.658;5.634;2023-03-01T03:41:05;3.9;;;3.8;;
48679;SDS011;34475;51.658;5.634;2023-03-01T03:42:01;3.9;;;3.8;;
48679;SDS011;34475;51.658;5.634;2023-03-01T03:43:02;3.9;;;3.8;;
48679;SDS011;34475;51.658;5.634;2023-03-01T03:44:00;3.9;;;3.8;;
48679;SDS011;34475;51.658;5.634;2023-03-01T03:45:00;3.9;;;3.8;;
48679;SDS011;34475;51.658;5.634;2023-03-01T03:46:05;3.9;;;3.8;;
48679;SDS011;34475;51.658;5.634;2023-03-01T03:47:00;3.9;;;3.8;;
48679;SDS011;34475;51.658;5.634;2023-03-01T03:48:02;3.9;;;3.8;;
48679;SDS011;34475;51.658;5.634;2023-03-01T03:49:00;3.9;;;3.8;;
48679;SDS011;34475;51.658;5.634;2023-03-01T03:50:00;3.9;;;3.8;;
48679;SDS011;34475;51.658;5.634;2023-03-01T03:51:01;4.2;;;4.1;;
48679;SDS011;34475;51.658;5.634;2023-03-01T03:52:00;4.2;;;4.1;;
48679;SDS011;34475;51.658;5.634;2023-03-01T03:53:02;4.2;;;4.1;;
48679;SDS011;34475;51.658;5.634;2023-03-01T03:54:00;4.2;;;4.1;;
48679;SDS011;34475;51.658;5.634;2023-03-01T03:55:00;4.2;;;4.1;;
48679;SDS011;34475;51.658;5.634;2023-03-01T03:56:00;4.2;;;4.1;;
48679;SDS011;34475;51.658;5.634;2023-03-01T03:57:00;4.2;;;4.1;;
48679;SDS011;34475;51.658;5.634;2023-03-01T03:58:07;4.2;;;4.1;;
48679;SDS011;34475;51.658;5.634;2023-03-01T03:59:00;4.2;;;4.1;;
48679;SDS011;34475;51.658;5.634;2023-03-01T04:00:00;4.2;;;4.1;;
48679;SDS011;34475;51.658;5.634;2023-03-01T04:01:00;4.2;;;4.1;;
48679;SDS011;34475;51.658;5.634;2023-03-01T04:02:00;4.2;;;4.1;;
48679;SDS011;34475;51.658;5.634;2023-03-01T04:03:01;4.2;;;4.1;;
48679;SDS011;34475;51.658;5.634;2023-03-01T04:04:03;4.2;;;4.1;;
48679;SDS011;34475;51.658;5.634;2023-03-01T04:05:00;4.2;;;4.1;;
48679;SDS011;34475;51.658;5.634;2023-03-01T04:06:02;4.2;;;4.1;;
48679;SDS011;34475;51.658;5.634;2023-03-01T04:07:00;4.2;;;4.1;;
48679;SDS011;34475;51.658;5.634;2023-03-01T04:08:07;4.2;;;4.1;;
48679;SDS011;34475;51.658;5.634;2023-03-01T04:09:02;4.2;;;4.1;;
48679;SDS011;34475;51.658;5.634;2023-03-01T04:10:03;4.2;;;4.1;;
48679;SDS011;34475;51.658;5.634;2023-03-01T04:11:11;4.0;;;3.9;;
48679;SDS011;34475;51.658;5.634;2023-03-01T04:12:00;4.0;;;3.9;;
48679;SDS011;34475;51.658;5.634;2023-03-01T04:13:00;4.0;;;3.9;;
48679;SDS011;34475;51.658;5.634;2023-03-01T04:14:00;4.0;;;3.9;;
48679;SDS011;34475;51.658;5.634;2023-03-01T04:15:01;4.0;;;3.9;;
48679;SDS011;34475;51.658;5.634;2023-03-01T04:16:00;4.0;;;3.9;;
48679;SDS011;34475;51.658;5.634;2023-03-01T04:17:00;4.0;;;3.9;;
48679;SDS011;34475;51.658;5.634;2023-03-01T04:18:01;4.0;;;3.9;;
48679;SDS011;34475;51.658;5.634;2023-03-01T04:19:00;4.0;;;3.9;;
48679;SDS011;34475;51.658;5.634;2023-03-01T04:20:05;4.0;;;3.9;;
48679;SDS011;34475;51.658;5.634;2023-03-01T04:21:00;4.0;;;3.9;;
48679;SDS011;34475;51.658;5.634;2023-03-01T04:22:07;4.0;;;3.9;;
48679;SDS011;34475;51.658;5.634;2023-03-01T04:23:13;4.0;;;3.9;;
48679;SDS011;34475;51.658;5.634;2023-03-01T04:24:02;4.0;;;3.9;;
48679;SDS011;34475;51.658;5.634;2023-03-01T04:25:06;4.0;;;3.9;;
48679;SDS011;34475;51.658;5.634;2023-03-01T04:26:00;4.0;;;3.9;;
48679;SDS011;34475;51.658;5.634;2023-03-01T04:27:00;4.0;;;3.9;;
48679;SDS011;34475;51.658;5.634;2023-03-01T04:28:00;4.0;;;3.9;;
48679;SDS011;34475;51.658;5.634;2023-03-01T04:29:00;4.0;;;3.9;;
48679;SDS011;34475;51.658;5.634;2023-03-01T04:30:02;4.0;;;3.9;;
48679;SDS011;34475;51.658;5.634;2023-03-01T04:31:13;4.5;;;4.4;;
48679;SDS011;34475;51.658;5.634;2023-03-01T04:32:00;4.5;;;4.4;;
48679;SDS011;34475;51.658;5.634;2023-03-01T04:33:00;4.5;;;4.4;;
48679;SDS011;34475;51.658;5.634;2023-03-01T04:34:00;4.5;;;4.4;;
48679;SDS011;34475;51.658;5.634;2023-03-01T04:35:00;4.5;;;4.4;;
48679;SDS011;34475;51.658;5.634;2023-03-01T04:36:05;4.5;;;4.4;;
48679;SDS011;34475;51.658;5.634;2023-03-01T04:37:00;4.5;;;4.4;;
48679;SDS011;34475;51.658;5.634;2023-03-01T04:38:00;4.5;;;4.4;;
48679;SDS011;34475;51.658;5.634;2023-03-01T04:39:10;4.5;;;4.4;;
48679;SDS011;34475;51.658;5.634;2023-03-01T04:40:11;4.5;;;4.4;;
48679;SDS011;34475;51.658;5.634;2023-03-01T04:41:00;4.5;;;4.4;;
48679;SDS011;34475;51.658;5.634;2023-03-01T04:42:00;4.5;;;4.4;;
48679;SDS011;34475;51.658;5.634;2023-03-01T04:43:01;4.5;;;4.4;;
48679;SDS011;34475;51.658;5.634;2023-03-01T04:44:00;4.5;;;4.4;;
48679;SDS011;34475;51.658;5.634;2023-03-01T04:45:00;4.5;;;4.4;;
48679;SDS011;34475;51.658;5.634;2023-03-01T04:46:03;4.5;;;4.4;;
48679;SDS011;34475;51.658;5.634;2023-03-01T04:47:00;4.5;;;4.4;;
48679;SDS011;34475;51.658;5.634;2023-03-01T04:48:01;4.5;;;4.4;;
48679;SDS011;34475;51.658;5.634;2023-03-01T04:49:00;4.5;;;4.4;;
48679;SDS011;34475;51.658;5.634;2023-03-01T04:50:00;4.5;;;4.4;;
48679;SDS011;34475;51.658;5.634;2023-03-01T04:51:00;4.2;;;4.1;;
48679;SDS011;34475;51.658;5.634;2023-03-01T04:52:04;4.2;;;4.1;;
48679;SDS011;34475;51.658;5.634;2023-03-01T04:53:01;4.2;;;4.1;;
48679;SDS011;34475;51.658;5.634;2023-03-01T04:54:00;4.2;;;4.1;;
48679;SDS011;34475;51.658;5.634;2023-03-01T04:55:01;4.2;;;4.1;;
48679;SDS011;34475;51.658;5.634;2023-03-01T04:56:00;4.2;;;4.1;;
48679;SDS011;34475;51.658;5.634;2023-03-01T04:57:02;4.2;;;4.1;;
48679;SDS011;34475;51.658;5.634;2023-03-01T04:58:00;4.2;;;4.1;;
48679;SDS011;34475;51.658;5.634;2023-03-01T04:59:00;4.2;;;4.1;;
48679;SDS011;34475;51.658;5.634;2023-03-01T05:00:00;4.2;;;4.1;;
48679;SDS011;34475;51.658;5.634;2023-03-01T05:01:00;4.2;;;4.1;;
48679;SDS011;34475;51.658;5.634;2023-03-01T05:02:00;4.2;;;4.1;;
48679;SDS011;34475;51.658;5.634;2023-03-01T05:03:01;4.2;;;4.1;;
48679;SDS011;34475;51.658;5.634;2023-03-01T05:04:02;4.2;;;4.1;;
48679;SDS011;34475;51.658;5.634;2023-03-01T05:05:00;4.2;;;4.1;;
48679;SDS011;34475;51.658;5.634;2023-03-01T05:06:00;4.2;;;4.1;;
48679;SDS011;34475;51.658;5.634;2023-03-01T05:07:00;4.2;;;4.1;;
48679;SDS011;34475;51.658;5.634;2023-03-01T05:08:03;4.2;;;4.1;;
48679;SDS011;34475;51.658;5.634;2023-03-01T05:09:01;4.2;;;4.1;;
48679;SDS011;34475;51.658;5.634;2023-03-01T05:10:00;4.2;;;4.1;;
48679;SDS011;34475;51.658;5.634;2023-03-01T05:11:00;4.3;;;4.2;;
48679;SDS011;34475;51.658;5.634;2023-03-01T05:12:00;4.3;;;4.2;;
48679;SDS011;34475;51.658;5.634;2023-03-01T05:13:01;4.3;;;4.2;;
48679;SDS011;34475;51.658;5.634;2023-03-01T05:14:00;4.3;;;4.2;;
48679;SDS011;34475;51.658;5.634;2023-03-01T05:15:06;4.3;;;4.2;;
48679;SDS011;34475;51.658;5.634;2023-03-01T05:16:02;4.3;;;4.2;;
48679;SDS011;34475;51.658;5.634;2023-03-01T05:17:03;4.3;;;4.2;;
48679;SDS011;34475;51.658;5.634;2023-03-01T05:18:00;4.3;;;4.2;;
48679;SDS011;34475;51.658;5.634;2023-03-01T05:19:00;4.3;;;4.2;;
48679;SDS011;34475;51.658;5.634;2023-03-01T05:20:01;4.3;;;4.2;;
48679;SDS011;34475;51.658;5.634;2023-03-01T05:21:06;4.3;;;4.2;;
48679;SDS011;34475;51.658;5.634;2023-03-01T05:22:01;4.3;;;4.2;;
48679;SDS011;34475;51.658;5.634;2023-03-01T05:23:05;4.3;;;4.2;;
48679;SDS011;34475;51.658;5.634;2023-03-01T05:24:01;4.3;;;4.2;;
48679;SDS011;34475;51.658;5.634;2023-03-01T05:25:00;4.3;;;4.2;;
48679;SDS011;34475;51.658;5.634;2023-03-01T05:26:02;4.3;;;4.2;;
48679;SDS011;34475;51.658;5.634;2023-03-01T05:27:01;4.3;;;4.2;;
48679;SDS011;34475;51.658;5.634;2023-03-01T05:28:04;4.3;;;4.2;;
48679;SDS011;34475;51.658;5.634;2023-03-01T05:29:01;4.3;;;4.2;;
48679;SDS011;34475;51.658;5.634;2023-03-01T05:30:10;4.7;;;4.6;;
48679;SDS011;34475;51.658;5.634;2023-03-01T05:31:01;4.7;;;4.6;;
48679;SDS011;34475;51.658;5.634;2023-03-01T05:32:02;4.7;;;4.6;;
48679;SDS011;34475;51.658;5.634;2023-03-01T05:33:01;4.7;;;4.6;;
48679;SDS011;34475;51.658;5.634;2023-03-01T05:34:01;4.7;;;4.6;;
48679;SDS011;34475;51.658;5.634;2023-03-01T05:35:00;4.7;;;4.6;;
48679;SDS011;34475;51.658;5.634;2023-03-01T05:36:00;4.7;;;4.6;;
48679;SDS011;34475;51.658;5.634;2023-03-01T05:37:01;4.7;;;4.6;;
48679;SDS011;34475;51.658;5.634;2023-03-01T05:38:00;4.7;;;4.6;;
48679;SDS011;34475;51.658;5.634;2023-03-01T05:39:00;4.7;;;4.6;;
48679;SDS011;34475;51.658;5.634;2023-03-01T05:40:00;4.7;;;4.6;;
48679;SDS011;34475;51.658;5.634;2023-03-01T05:41:01;4.7;;;4.6;;
48679;SDS011;34475;51.658;5.634;2023-03-01T05:42:01;4.7;;;4.6;;
48679;SDS011;34475;51.658;5.634;2023-03-01T05:43:01;4.7;;;4.6;;
48679;SDS011;34475;51.658;5.634;2023-03-01T05:44:00;4.7;;;4.6;;
48679;SDS011;34475;51.658;5.634;2023-03-01T05:45:00;4.7;;;4.6;;
48679;SDS011;34475;51.658;5.634;2023-03-01T05:46:00;4.7;;;4.6;;
48679;SDS011;34475;51.658;5.634;2023-03-01T05:47:00;4.7;;;4.6;;
48679;SDS011;34475;51.658;5.634;2023-03-01T05:48:00;4.7;;;4.6;;
48679;SDS011;34475;51.658;5.634;2023-03-01T05:49:00;4.7;;;4.6;;
48679;SDS011;34475;51.658;5.634;2023-03-01T05:50:00;4.3;;;4.2;;
48679;SDS011;34475;51.658;5.634;2023-03-01T05:51:00;4.3;;;4.2;;
48679;SDS011;34475;51.658;5.634;2023-03-01T05:52:00;4.3;;;4.2;;
48679;SDS011;34475;51.658;5.634;2023-03-01T05:53:02;4.3;;;4.2;;
48679;SDS011;34475;51.658;5.634;2023-03-01T05:54:00;4.3;;;4.2;;
48679;SDS011;34475;51.658;5.634;2023-03-01T05:55:00;4.3;;;4.2;;
48679;SDS011;34475;51.658;5.634;2023-03-01T05:56:03;4.3;;;4.2;;
48679;SDS011;34475;51.658;5.634;2023-03-01T05:57:00;4.3;;;4.2;;
48679;SDS011;34475;51.658;5.634;2023-03-01T05:58:03;4.3;;;4.2;;
48679;SDS011;34475;51.658;5.634;2023-03-01T05:59:01;4.3;;;4.2;;
48679;SDS011;34475;51.658;5.634;2023-03-01T06:00:01;4.3;;;4.2;;
48679;SDS011;34475;51.658;5.634;2023-03-01T06:01:00;4.3;;;4.2;;
48679;SDS011;34475;51.658;5.634;2023-03-01T06:02:00;4.3;;;4.2;;
48679;SDS011;34475;51.658;5.634;2023-03-01T06:03:01;4.3;;;4.2;;
48679;SDS011;34475;51.658;5.634;2023-03-01T06:04:01;4.3;;;4.2;;
48679;SDS011;34475;51.658;5.634;2023-03-01T06:05:01;4.3;;;4.2;;
48679;SDS011;34475;51.658;5.634;2023-03-01T06:06:00;4.3;;;4.2;;
48679;SDS011;34475;51.658;5.634;2023-03-01T06:07:00;4.3;;;4.2;;
48679;SDS011;34475;51.658;5.634;2023-03-01T06:08:01;4.3;;;4.2;;
48679;SDS011;34475;51.658;5.634;2023-03-01T06:09:00;4.3;;;4.2;;
48679;SDS011;34475;51.658;5.634;2023-03-01T06:10:01;4.6;;;4.5;;
48679;SDS011;34475;51.658;5.634;2023-03-01T06:11:01;4.6;;;4.5;;
48679;SDS011;34475;51.658;5.634;2023-03-01T06:12:00;4.6;;;4.5;;
48679;SDS011;34475;51.658;5.634;2023-03-01T06:13:00;4.6;;;4.5;;
48679;SDS011;34475;51.658;5.634;2023-03-01T06:14:00;4.6;;;4.5;;
48679;SDS011;34475;51.658;5.634;2023-03-01T06:15:01;4.6;;;4.5;;
48679;SDS011;34475;51.658;5.634;2023-03-01T06:16:00;4.6;;;4.5;;
48679;SDS011;34475;51.658;5.634;2023-03-01T06:17:00;4.6;;;4.5;;
48679;SDS011;34475;51.658;5.634;2023-03-01T06:18:00;4.6;;;4.5;;
48679;SDS011;34475;51.658;5.634;2023-03-01T06:19:00;4.6;;;4.5;;
48679;SDS011;34475;51.658;5.634;2023-03-01T06:20:01;4.6;;;4.5;;
48679;SDS011;34475;51.658;5.634;2023-03-01T06:21:00;4.6;;;4.5;;
48679;SDS011;34475;51.658;5.634;2023-03-01T06:22:00;4.6;;;4.5;;